Cole Camp, MO

9:41 PM CDT on March 27, 2015 (GMT -0500)
KMOSEDAL5 | | Change Station
CLOSE
Current Station
Personal Weather Station
Location: Sedalia, MO
Elevation: 837 ft
Nearby Weather Stations

Elev 837 ft 38.70 °N, 93.29 °W | Updated 32 seconds ago

Overcast
Overcast
40.1 °F
Feels Like 40 °F
N
0.0
Wind Variable Wind from NNW
Gusts 1.0 mph

Today
High -- | Low -- °F
--% Chance of Precip.
Yesterday
High -- | Low -- °F
Precip. -- in
7:05 AM 7:31 PM
First Quarter, 58% visible
Pressure 30.20 in
Visibility 10.0 miles
Clouds Overcast 9000 ft
Windchill 40 °F
Dew Point 26 °F
Humidity 56%
Rainfall 0.00 in
Snow Depth Not available.
UV 0 out of 12
Pollen 8.00 out of 12
Air Quality Not available.
Flu Activity Not available.
METAR KDMO 280153Z AUTO 35003KT 10SM OVC090 05/M04 A3018 RMK AO2 SLP227 T00501039

More Conditions Fewer Conditions

Pressure 30.20 in
Visibility 10.0 miles
Clouds Overcast 9000 ft
Windchill 40 °F
Dew Point 26 °F
Humidity 56%
Rainfall 0.00 in
Snow Depth Not available.
UV 0 out of 12
Pollen 8.00 out of 12
Air Quality Not available.
Flu Activity Not available.
METAR KDMO 280153Z AUTO 35003KT 10SM OVC090 05/M04 A3018 RMK AO2 SLP227 T00501039

More Conditions Fewer Conditions

10-Day Weather Forecast

Almanac

Astronomy

Mar. 27, 2015 Rise Set
Actual Time
Civil Twilight
Nautical Twilight
Astronomical Twilight
Moon
Length of Visible Light
Length of Day
Tomorrow will be .
, % of the Moon is Illuminated

Today's Extremes

State Highs State Lows

Community

WunderPhotos

Upload Photos

1,808,916 photos uploaded!

WunderBlogs® & News

Nearby

Air Quality

  Air Quality AQ Index Pollutant
Not available.

Snow Depth

Station Depth Elevation

Earthquake Activity

City Distance Mag. Time & Date
Minimum magnitude displayed is 2.5.

Coastal Water Temperatures

Place Temperature

Stations

Nearby Weather Stations

Station Location Temp. Windchill Dew Point Humidity Wind Precip. Elev Updated Type